Hisle, Kentucky
Current Conditions -  °F | °C
As of 2:15 PM on Friday 28 Nov 2014 (Local Time) from KI39 Reporting Station
Scattered Clouds Scattered Clouds  
Wind Chill: -1°   Ceiling: Unl
Heat Index:   Visibility: 10mi
Dew Point: -9°   Wind: 6mph
Humidity: 44%   Direction: 180°S
Pressure: 30.28"   Gusts: NA
Location:  37.4446°N, 84.0227°W
Report Text: KI39 281915Z AUTO 18005KT 10SM SCT120 02/M09 A3028 RMK AO2
Loading
Personal Weather Stations






























Interactive Weather Map New forecast layout! Learn more

10-Day Weather Forecast

Advertisements
Track Severe Weather on mobile